| time (UTC) | temp F | wind direction | speed MPH | gust MPH | rain 1hr in | rain 24hr in | rain mn in | humidity % | barometer mb |
| 20260903003339 | 83 | 213 | 2.0 | 3.0 | 0.00 | 0.00 | 0.00 | 86 | 1017.3 |
| 20260903002840 | 83 | 239 | 2.0 | 2.0 | 0.00 | 0.00 | 0.00 | 86 | 1017.3 |
| 20260903002338 | 83 | 283 | 0.0 | 2.0 | 0.00 | 0.00 | 0.00 | 85 | 1017.6 |
| 20260903001838 | 83 | 274 | 0.0 | 3.0 | 0.00 | 0.00 | 0.00 | 85 | 1017.6 |
| 20260903001338 | 83 | 239 | 2.0 | 3.0 | 0.00 | 0.00 | 0.00 | 85 | 1017.6 |
| 20260903000839 | 83 | 234 | 2.0 | 2.0 | 0.00 | 0.00 | 0.00 | 86 | 1017.6 |
| 20260903000340 | 83 | 323 | 0.0 | 2.0 | 0.00 | 0.00 | 0.00 | 85 | 1017.6 |
| 20260902235838 | 84 | 271 | 0.0 | 0.0 | 0.00 | 0.00 | 0.00 | 85 | 1017.3 |
| 20260902235338 | 84 | 178 | 2.0 | 3.0 | 0.00 | 0.00 | 0.00 | 85 | 1017.3 |
| 20260902234839 | 84 | 220 | 5.0 | 5.0 | 0.00 | 0.00 | 0.00 | 84 | 1017.3 |
| 20260902234339 | 84 | 332 | 0.0 | 2.0 | 0.00 | 0.00 | 0.00 | 85 | 1017.3 |
| 20260902233838 | 85 | 5 | 0.0 | 2.0 | 0.00 | 0.00 | 0.00 | 85 | 1017.3 |
| 20260902233338 | 85 | 248 | 0.0 | 2.0 | 0.00 | 0.00 | 0.00 | 85 | 1017.3 |
| 20260902232839 | 85 | 258 | 0.0 | 0.0 | 0.00 | 0.00 | 0.00 | 84 | 1017.3 |
| 20260902232340 | 85 | 143 | 2.0 | 2.0 | 0.00 | 0.00 | 0.00 | 84 | 1017.3 |
| 20260902231839 | 86 | 265 | 0.0 | 0.0 | 0.00 | 0.00 | 0.00 | 84 | 1016.9 |
| 20260902231339 | 86 | 259 | 2.0 | 2.0 | 0.00 | 0.00 | 0.00 | 83 | 1016.9 |
| 20260902230838 | 86 | 227 | 2.0 | 3.0 | 0.00 | 0.00 | 0.00 | 83 | 1016.9 |
| 20260902230339 | 86 | 254 | 3.0 | 5.0 | 0.00 | 0.00 | 0.00 | 83 | 1016.9 |
| 20260902225839 | 87 | 343 | 0.0 | 0.0 | 0.00 | 0.00 | 0.00 | 82 | 1016.9 |
| 20260902225338 | 87 | 353 | 2.0 | 2.0 | 0.00 | 0.00 | 0.00 | 81 | 1016.9 |
| 20260902224839 | 87 | 257 | 0.0 | 2.0 | 0.00 | 0.00 | 0.00 | 82 | 1016.9 |
| 20260902224338 | 88 | 121 | 2.0 | 2.0 | 0.00 | 0.00 | 0.00 | 81 | 1016.9 |
| 20260902223838 | 88 | 301 | 0.0 | 0.0 | 0.00 | 0.00 | 0.00 | 81 | 1016.9 |
| 20260902223338 | 88 | 142 | 2.0 | 3.0 | 0.00 | 0.00 | 0.00 | 80 | 1016.6 |
| 20260902222838 | 88 | 119 | 3.0 | 3.0 | 0.00 | 0.00 | 0.00 | 81 | 1016.6 |
| 20260902222339 | 88 | 270 | 0.0 | 3.0 | 0.00 | 0.00 | 0.00 | 81 | 1016.6 |
| 20260902221839 | 89 | 15 | 0.0 | 2.0 | 0.00 | 0.00 | 0.00 | 81 | 1016.6 |
| 20260902221338 | 89 | 246 | 2.0 | 2.0 | 0.00 | 0.00 | 0.00 | 81 | 1016.6 |
| 20260902220838 | 90 | 251 | 0.0 | 2.0 | 0.00 | 0.00 | 0.00 | 80 | 1016.6 |
| 20260902220338 | 90 | 331 | 0.0 | 2.0 | 0.00 | 0.00 | 0.00 | 79 | 1016.6 |
| 20260902215838 | 90 | 232 | 2.0 | 2.0 | 0.00 | 0.00 | 0.00 | 79 | 1016.6 |
| 20260902215338 | 91 | 285 | 2.0 | 2.0 | 0.00 | 0.00 | 0.00 | 78 | 1016.6 |
| 20260902214839 | 90 | 81 | 2.0 | 2.0 | 0.00 | 0.00 | 0.00 | 79 | 1016.9 |
| 20260902214339 | 91 | 309 | 2.0 | 3.0 | 0.00 | 0.00 | 0.00 | 78 | 1016.6 |
| 20260902213838 | 91 | 107 | 3.0 | 3.0 | 0.00 | 0.00 | 0.00 | 77 | 1016.6 |
| 20260902213338 | 91 | 74 | 2.0 | 2.0 | 0.00 | 0.00 | 0.00 | 78 | 1016.6 |
| 20260902212840 | 92 | 30 | 3.0 | 3.0 | 0.00 | 0.00 | 0.00 | 76 | 1016.6 |
| 20260902212338 | 92 | 276 | 2.0 | 2.0 | 0.00 | 0.00 | 0.00 | 78 | 1016.3 |
| 20260902211839 | 92 | 287 | 2.0 | 2.0 | 0.00 | 0.00 | 0.00 | 76 | 1016.3 |
| 20260902211338 | 92 | 236 | 2.0 | 2.0 | 0.00 | 0.00 | 0.00 | 76 | 1016.3 |
| 20260902210838 | 92 | 350 | 3.0 | 3.0 | 0.00 | 0.00 | 0.00 | 76 | 1016.3 |
| 20260902210338 | 92 | 26 | 2.0 | 3.0 | 0.00 | 0.00 | 0.00 | 76 | 1016.3 |
| 20260902205839 | 93 | 308 | 2.0 | 2.0 | 0.00 | 0.00 | 0.00 | 74 | 1016.3 |
| 20260902205339 | 92 | 242 | 2.0 | 2.0 | 0.00 | 0.00 | 0.00 | 74 | 1016.6 |
| 20260902204838 | 92 | 325 | 2.0 | 2.0 | 0.00 | 0.00 | 0.00 | 75 | 1016.6 |
| 20260902204341 | 93 | 16 | 2.0 | 2.0 | 0.00 | 0.00 | 0.00 | 74 | 1016.6 |
| 20260902203840 | 94 | 220 | 5.0 | 7.0 | 0.00 | 0.00 | 0.00 | 71 | 1016.6 |
| 20260902203338 | 93 | 205 | 2.0 | 3.0 | 0.00 | 0.00 | 0.00 | 74 | 1016.6 |
| 20260902202838 | 94 | 334 | 2.0 | 3.0 | 0.00 | 0.00 | 0.00 | 71 | 1016.6 |
| 20260902202339 | 93 | 334 | 2.0 | 3.0 | 0.00 | 0.00 | 0.00 | 74 | 1016.6 |
| 20260902201838 | 94 | 301 | 2.0 | 3.0 | 0.00 | 0.00 | 0.00 | 73 | 1016.9 |
| 20260902201338 | 95 | 304 | 2.0 | 2.0 | 0.00 | 0.00 | 0.00 | 71 | 1016.6 |
| 20260902200839 | 94 | 212 | 2.0 | 3.0 | 0.00 | 0.00 | 0.00 | 71 | 1016.6 |
| 20260902200339 | 95 | 190 | 3.0 | 5.0 | 0.00 | 0.00 | 0.00 | 73 | 1016.6 |
| 20260902195838 | 94 | 303 | 3.0 | 5.0 | 0.00 | 0.00 | 0.00 | 72 | 1016.9 |
| 20260902195339 | 93 | 289 | 2.0 | 2.0 | 0.00 | 0.00 | 0.00 | 72 | 1016.9 |
| 20260902194839 | 94 | 27 | 2.0 | 2.0 | 0.00 | 0.00 | 0.00 | 69 | 1016.9 |
| 20260902194338 | 94 | 19 | 2.0 | 3.0 | 0.00 | 0.00 | 0.00 | 67 | 1016.9 |
| 20260902193838 | 96 | 199 | 5.0 | 7.0 | 0.00 | 0.00 | 0.00 | 65 | 1016.9 |
| 20260902193338 | 94 | 105 | 2.0 | 2.0 | 0.00 | 0.00 | 0.00 | 67 | 1016.9 |
| 20260902192841 | 94 | 331 | 2.0 | 2.0 | 0.00 | 0.00 | 0.00 | 65 | 1016.9 |
| 20260902192338 | 95 | 158 | 2.0 | 2.0 | 0.00 | 0.00 | 0.00 | 66 | 1017.3 |
| 20260902191838 | 95 | 339 | 3.0 | 3.0 | 0.00 | 0.00 | 0.00 | 66 | 1017.3 |
| 20260902191339 | 97 | 215 | 3.0 | 5.0 | 0.00 | 0.00 | 0.00 | 63 | 1017.3 |
| 20260902190839 | 97 | 240 | 3.0 | 3.0 | 0.00 | 0.00 | 0.00 | 61 | 1017.3 |
| 20260902190338 | 95 | 209 | 5.0 | 5.0 | 0.00 | 0.00 | 0.00 | 64 | 1017.3 |
| 20260902185838 | 96 | 223 | 3.0 | 5.0 | 0.00 | 0.00 | 0.00 | 62 | 1017.3 |
| 20260902185338 | 94 | 359 | 2.0 | 2.0 | 0.00 | 0.00 | 0.00 | 68 | 1017.3 |
| 20260902184839 | 94 | 163 | 2.0 | 5.0 | 0.00 | 0.00 | 0.00 | 67 | 1017.3 |
| 20260902184339 | 94 | 231 | 0.0 | 0.0 | 0.00 | 0.00 | 0.00 | 67 | 1017.3 |
| 20260902183838 | 94 | 248 | 0.0 | 3.0 | 0.00 | 0.00 | 0.00 | 65 | 1017.3 |
| 20260902183338 | 95 | 250 | 3.0 | 3.0 | 0.00 | 0.00 | 0.00 | 66 | 1017.3 |
| 20260902182839 | 94 | 352 | 0.0 | 2.0 | 0.00 | 0.00 | 0.00 | 65 | 1017.3 |
| 20260902182339 | 95 | 243 | 2.0 | 5.0 | 0.00 | 0.00 | 0.00 | 65 | 1017.3 |
| 20260902181838 | 95 | 228 | 3.0 | 3.0 | 0.00 | 0.00 | 0.00 | 64 | 1017.6 |
| 20260902181339 | 96 | 273 | 3.0 | 3.0 | 0.00 | 0.00 | 0.00 | 63 | 1017.6 |
| 20260902180841 | 95 | 47 | 2.0 | 2.0 | 0.00 | 0.00 | 0.00 | 64 | 1017.6 |
| 20260902180340 | 94 | 205 | 3.0 | 5.0 | 0.00 | 0.00 | 0.00 | 64 | 1017.6 |
| 20260902175840 | 94 | 227 | 3.0 | 5.0 | 0.00 | 0.00 | 0.00 | 68 | 1017.6 |
| 20260902175340 | 94 | 220 | 3.0 | 3.0 | 0.00 | 0.00 | 0.00 | 64 | 1017.6 |
| 20260902174840 | 94 | 284 | 2.0 | 3.0 | 0.00 | 0.00 | 0.00 | 64 | 1017.6 |
| 20260902174338 | 93 | 335 | 0.0 | 2.0 | 0.00 | 0.00 | 0.00 | 67 | 1017.6 |
| 20260902173839 | 93 | 31 | 2.0 | 7.0 | 0.00 | 0.00 | 0.00 | 67 | 1017.9 |
| 20260902173339 | 93 | 317 | 0.0 | 0.0 | 0.00 | 0.00 | 0.00 | 67 | 1017.6 |
| 20260902172840 | 92 | 57 | 2.0 | 2.0 | 0.00 | 0.00 | 0.00 | 67 | 1017.6 |
| 20260902172338 | 93 | 237 | 2.0 | 5.0 | 0.00 | 0.00 | 0.00 | 66 | 1017.6 |
| 20260902171839 | 93 | 276 | 5.0 | 5.0 | 0.00 | 0.00 | 0.00 | 66 | 1017.6 |
| 20260902171339 | 93 | 316 | 3.0 | 3.0 | 0.00 | 0.00 | 0.00 | 67 | 1017.9 |
| 20260902170911 | 92 | 269 | 5.0 | 5.0 | 0.00 | 0.00 | 0.00 | 69 | 1017.9 |
| 20260902170339 | 91 | 212 | 2.0 | 5.0 | 0.00 | 0.00 | 0.00 | 69 | 1017.9 |
| 20260902165838 | 92 | 199 | 0.0 | 2.0 | 0.00 | 0.00 | 0.00 | 69 | 1017.9 |
| 20260902165338 | 91 | 279 | 3.0 | 5.0 | 0.00 | 0.00 | 0.00 | 69 | 1017.9 |
| 20260902164838 | 92 | 259 | 2.0 | 5.0 | 0.00 | 0.00 | 0.00 | 72 | 1017.9 |
| 20260902164339 | 91 | 357 | 2.0 | 2.0 | 0.00 | 0.00 | 0.00 | 70 | 1017.9 |
| 20260902163839 | 91 | 308 | 5.0 | 5.0 | 0.00 | 0.00 | 0.00 | 71 | 1017.9 |
| 20260902163339 | 91 | 227 | 3.0 | 5.0 | 0.00 | 0.00 | 0.00 | 71 | 1017.9 |
| 20260902162839 | 90 | 295 | 3.0 | 3.0 | 0.00 | 0.00 | 0.00 | 71 | 1017.9 |
| 20260902162338 | 90 | 350 | 3.0 | 5.0 | 0.00 | 0.00 | 0.00 | 73 | 1018.3 |
| 20260902161840 | 90 | 310 | 0.0 | 2.0 | 0.00 | 0.00 | 0.00 | 72 | 1018.3 |
| 20260902161338 | 89 | 268 | 5.0 | 7.0 | 0.00 | 0.00 | 0.00 | 72 | 1018.3 |
| 20260902160841 | 89 | 276 | 3.0 | 3.0 | 0.00 | 0.00 | 0.00 | 72 | 1018.3 |
| 20260902160338 | 89 | 241 | 5.0 | 7.0 | 0.00 | 0.00 | 0.00 | 73 | 1018.3 |
| 20260902155839 | 89 | 317 | 5.0 | 7.0 | 0.00 | 0.00 | 0.00 | 73 | 1018.3 |
| 20260902155339 | 89 | 291 | 3.0 | 3.0 | 0.00 | 0.00 | 0.00 | 73 | 1018.3 |
| 20260902154838 | 88 | 277 | 5.0 | 5.0 | 0.00 | 0.00 | 0.00 | 74 | 1018.3 |
| 20260902154339 | 88 | 231 | 3.0 | 7.0 | 0.00 | 0.00 | 0.00 | 73 | 1018.3 |
| 20260902153839 | 88 | 245 | 2.0 | 2.0 | 0.00 | 0.00 | 0.00 | 74 | 1018.3 |
| 20260902153339 | 88 | 294 | 6.0 | 7.0 | 0.00 | 0.00 | 0.00 | 73 | 1018.3 |
| 20260902152845 | 88 | 279 | 3.0 | 3.0 | 0.00 | 0.00 | 0.00 | 73 | 1018.3 |
| 20260902152339 | 87 | 257 | 3.0 | 3.0 | 0.00 | 0.00 | 0.00 | 76 | 1018.3 |
| 20260902151838 | 87 | 291 | 5.0 | 7.0 | 0.00 | 0.00 | 0.00 | 74 | 1018.3 |
| 20260902151338 | 87 | 251 | 2.0 | 3.0 | 0.00 | 0.00 | 0.00 | 74 | 1018.3 |
| 20260902150847 | 87 | 285 | 3.0 | 5.0 | 0.00 | 0.00 | 0.00 | 75 | 1018.3 |
| 20260902150339 | 87 | 302 | 10.0 | 12.0 | 0.00 | 0.00 | 0.00 | 75 | 1018.3 |
| 20260902145839 | 87 | 252 | 5.0 | 7.0 | 0.00 | 0.00 | 0.00 | 75 | 1018.3 |
| 20260902145339 | 86 | 235 | 5.0 | 5.0 | 0.00 | 0.00 | 0.00 | 76 | 1018.3 |
| 20260902144838 | 86 | 275 | 3.0 | 7.0 | 0.00 | 0.00 | 0.00 | 77 | 1018.3 |
| 20260902144338 | 86 | 214 | 2.0 | 2.0 | 0.00 | 0.00 | 0.00 | 78 | 1018.3 |
| 20260902143839 | 85 | 225 | 2.0 | 3.0 | 0.00 | 0.00 | 0.00 | 76 | 1018.3 |
| 20260902143340 | 85 | 224 | 2.0 | 3.0 | 0.00 | 0.00 | 0.00 | 77 | 1018.3 |
| 20260902142839 | 85 | 257 | 3.0 | 3.0 | 0.00 | 0.00 | 0.00 | 77 | 1018.3 |
| 20260902142349 | 84 | 302 | 5.0 | 5.0 | 0.00 | 0.00 | 0.00 | 78 | 1018.3 |
| 20260902141839 | 84 | 225 | 5.0 | 5.0 | 0.00 | 0.00 | 0.00 | 78 | 1018.3 |
| 20260902141338 | 84 | 222 | 2.0 | 3.0 | 0.00 | 0.00 | 0.00 | 76 | 1018.3 |
| 20260902140839 | 84 | 285 | 3.0 | 5.0 | 0.00 | 0.00 | 0.00 | 77 | 1018.3 |
| 20260902140338 | 83 | 234 | 5.0 | 5.0 | 0.00 | 0.00 | 0.00 | 79 | 1018.3 |
| 20260902135840 | 83 | 296 | 0.0 | 2.0 | 0.00 | 0.00 | 0.00 | 80 | 1018.6 |
| 20260902135341 | 83 | 289 | 2.0 | 3.0 | 0.00 | 0.00 | 0.00 | 79 | 1018.3 |
| 20260902134839 | 83 | 232 | 2.0 | 3.0 | 0.00 | 0.00 | 0.00 | 79 | 1018.3 |
| 20260902134340 | 83 | 237 | 3.0 | 5.0 | 0.00 | 0.00 | 0.00 | 79 | 1018.3 |
| 20260902133839 | 82 | 231 | 3.0 | 5.0 | 0.00 | 0.00 | 0.00 | 81 | 1018.3 |
| 20260902133338 | 82 | 278 | 3.0 | 5.0 | 0.00 | 0.00 | 0.00 | 82 | 1018.3 |
| 20260902132838 | 81 | 312 | 3.0 | 3.0 | 0.00 | 0.00 | 0.00 | 82 | 1018.3 |
| 20260902132341 | 81 | 268 | 2.0 | 3.0 | 0.00 | 0.00 | 0.00 | 83 | 1018.3 |
| 20260902131838 | 81 | 209 | 3.0 | 3.0 | 0.00 | 0.00 | 0.00 | 83 | 1018.3 |
| 20260902131339 | 80 | 233 | 5.0 | 5.0 | 0.00 | 0.00 | 0.00 | 86 | 1018.6 |
| 20260902130838 | 80 | 207 | 3.0 | 5.0 | 0.00 | 0.00 | 0.00 | 88 | 1018.6 |
| 20260902130339 | 80 | 216 | 3.0 | 3.0 | 0.00 | 0.00 | 0.00 | 91 | 1018.6 |
| 20260902125839 | 79 | 240 | 2.0 | 3.0 | 0.00 | 0.00 | 0.00 | 92 | 1018.6 |
| 20260902125341 | 78 | 225 | 3.0 | 5.0 | 0.00 | 0.00 | 0.00 | 94 | 1018.6 |
| 20260902124839 | 78 | 226 | 2.0 | 3.0 | 0.00 | 0.00 | 0.00 | 96 | 1018.6 |
| 20260902124341 | 77 | 261 | 2.0 | 3.0 | 0.00 | 0.00 | 0.00 | 98 | 1018.6 |
| 20260902123839 | 77 | 213 | 3.0 | 3.0 | 0.00 | 0.00 | 0.00 | 98 | 1018.6 |
| 20260902123339 | 77 | 260 | 5.0 | 5.0 | 0.00 | 0.00 | 0.00 | 99 | 1018.6 |
| 20260902122838 | 77 | 242 | 3.0 | 5.0 | 0.00 | 0.00 | 0.00 | 100 | 1019.0 |
| 20260902122339 | 76 | 218 | 2.0 | 2.0 | 0.00 | 0.00 | 0.00 | 100 | 1019.0 |
| 20260902121839 | 76 | 255 | 2.0 | 3.0 | 0.00 | 0.00 | 0.00 | 100 | 1019.0 |
| 20260902121338 | 76 | 250 | 3.0 | 3.0 | 0.00 | 0.00 | 0.00 | 100 | 1018.6 |
| 20260902120839 | 76 | 294 | 3.0 | 3.0 | 0.00 | 0.00 | 0.00 | 100 | 1019.0 |
| 20260902120339 | 76 | 293 | 0.0 | 2.0 | 0.00 | 0.00 | 0.00 | 100 | 1018.6 |
| 20260902115838 | 76 | 260 | 2.0 | 2.0 | 0.00 | 0.00 | 0.00 | 100 | 1018.6 |
| 20260902115339 | 76 | 214 | 3.0 | 3.0 | 0.00 | 0.00 | 0.00 | 100 | 1018.6 |
| 20260902114838 | 76 | 260 | 2.0 | 2.0 | 0.00 | 0.00 | 0.00 | 100 | 1018.6 |
| 20260902114338 | 75 | 270 | 2.0 | 3.0 | 0.00 | 0.00 | 0.00 | 100 | 1018.6 |
| 20260902113838 | 75 | 249 | 2.0 | 2.0 | 0.00 | 0.00 | 0.00 | 100 | 1018.6 |
| 20260902113338 | 75 | 223 | 2.0 | 3.0 | 0.00 | 0.00 | 0.00 | 100 | 1018.6 |
| 20260902112838 | 75 | 207 | 2.0 | 2.0 | 0.00 | 0.00 | 0.00 | 100 | 1018.6 |
| 20260902112339 | 75 | 255 | 0.0 | 2.0 | 0.00 | 0.00 | 0.00 | 100 | 1018.6 |
| 20260902111839 | 75 | 274 | 3.0 | 3.0 | 0.00 | 0.00 | 0.00 | 100 | 1018.6 |
| 20260902111338 | 75 | 277 | 0.0 | 0.0 | 0.00 | 0.00 | 0.00 | 100 | 1018.6 |
| 20260902110841 | 75 | 255 | 0.0 | 0.0 | 0.00 | 0.00 | 0.00 | 100 | 1018.6 |
| 20260902110338 | 75 | 247 | 2.0 | 2.0 | 0.00 | 0.00 | 0.00 | 100 | 1018.3 |
| 20260902105840 | 75 | 244 | 2.0 | 2.0 | 0.00 | 0.00 | 0.00 | 100 | 1018.3 |
| 20260902105338 | 74 | 281 | 0.0 | 0.0 | 0.00 | 0.00 | 0.00 | 100 | 1018.3 |
| 20260902104839 | 74 | 304 | 0.0 | 0.0 | 0.00 | 0.00 | 0.00 | 100 | 1018.3 |
| 20260902104339 | 74 | 304 | 0.0 | 0.0 | 0.00 | 0.00 | 0.00 | 100 | 1018.3 |
| 20260902103838 | 74 | 304 | 0.0 | 0.0 | 0.00 | 0.00 | 0.00 | 100 | 1018.3 |
| 20260902103339 | 74 | 304 | 0.0 | 0.0 | 0.00 | 0.00 | 0.00 | 100 | 1018.3 |
| 20260902102838 | 74 | 306 | 0.0 | 0.0 | 0.00 | 0.00 | 0.00 | 100 | 1018.6 |
| 20260902102344 | 75 | 306 | 0.0 | 0.0 | 0.00 | 0.00 | 0.00 | 100 | 1018.3 |
| 20260902101839 | 75 | 306 | 0.0 | 0.0 | 0.00 | 0.00 | 0.00 | 100 | 1018.3 |
| 20260902101338 | 75 | 306 | 0.0 | 0.0 | 0.00 | 0.00 | 0.00 | 100 | 1018.3 |
| 20260902100839 | 75 | 306 | 0.0 | 0.0 | 0.00 | 0.00 | 0.00 | 100 | 1018.6 |
| 20260902100338 | 75 | 304 | 0.0 | 0.0 | 0.00 | 0.00 | 0.00 | 100 | 1018.3 |
| 20260902095838 | 75 | 304 | 0.0 | 0.0 | 0.00 | 0.00 | 0.00 | 100 | 1018.3 |
| 20260902095338 | 75 | 298 | 0.0 | 0.0 | 0.00 | 0.00 | 0.00 | 100 | 1018.3 |
| 20260902094838 | 75 | 280 | 0.0 | 0.0 | 0.00 | 0.00 | 0.00 | 100 | 1018.3 |
| 20260902094339 | 75 | 261 | 0.0 | 0.0 | 0.00 | 0.00 | 0.00 | 100 | 1017.9 |
| 20260902093839 | 75 | 255 | 0.0 | 2.0 | 0.00 | 0.00 | 0.00 | 100 | 1017.9 |
| 20260902093338 | 75 | 266 | 2.0 | 2.0 | 0.00 | 0.00 | 0.00 | 100 | 1017.9 |
| 20260902092838 | 75 | 272 | 0.0 | 2.0 | 0.00 | 0.00 | 0.00 | 100 | 1017.9 |
| 20260902092339 | 75 | 303 | 0.0 | 0.0 | 0.00 | 0.00 | 0.00 | 100 | 1017.9 |
| 20260902091838 | 75 | 339 | 0.0 | 0.0 | 0.00 | 0.00 | 0.00 | 100 | 1018.3 |
| 20260902091338 | 75 | 342 | 0.0 | 0.0 | 0.00 | 0.00 | 0.00 | 100 | 1018.3 |
| 20260902090839 | 75 | 341 | 0.0 | 0.0 | 0.00 | 0.00 | 0.00 | 100 | 1018.3 |
| 20260902090338 | 75 | 265 | 0.0 | 0.0 | 0.00 | 0.00 | 0.00 | 100 | 1017.9 |
| 20260902085838 | 75 | 265 | 0.0 | 0.0 | 0.00 | 0.00 | 0.00 | 100 | 1017.9 |
| 20260902085338 | 75 | 260 | 0.0 | 0.0 | 0.00 | 0.00 | 0.00 | 100 | 1017.9 |
| 20260902084839 | 75 | 236 | 2.0 | 2.0 | 0.00 | 0.00 | 0.00 | 100 | 1017.9 |
| 20260902084341 | 75 | 283 | 0.0 | 0.0 | 0.00 | 0.00 | 0.00 | 100 | 1017.9 |
| 20260902083839 | 75 | 278 | 0.0 | 0.0 | 0.00 | 0.00 | 0.00 | 100 | 1017.9 |
| 20260902083339 | 75 | 278 | 0.0 | 0.0 | 0.00 | 0.00 | 0.00 | 100 | 1017.9 |
| 20260902082838 | 75 | 271 | 0.0 | 0.0 | 0.00 | 0.00 | 0.00 | 100 | 1017.9 |
| 20260902082351 | 75 | 271 | 0.0 | 0.0 | 0.00 | 0.00 | 0.00 | 100 | 1017.9 |
| 20260902081838 | 75 | 267 | 0.0 | 0.0 | 0.00 | 0.00 | 0.00 | 100 | 1017.9 |
| 20260902081339 | 75 | 262 | 0.0 | 2.0 | 0.00 | 0.00 | 0.00 | 100 | 1017.9 |
| 20260902080839 | 75 | 241 | 0.0 | 2.0 | 0.00 | 0.00 | 0.00 | 100 | 1017.9 |
| 20260902080340 | 75 | 285 | 0.0 | 0.0 | 0.00 | 0.00 | 0.00 | 100 | 1017.9 |
| 20260902075839 | 75 | 289 | 0.0 | 0.0 | 0.00 | 0.00 | 0.00 | 100 | 1017.9 |
| 20260902075340 | 75 | 277 | 0.0 | 0.0 | 0.00 | 0.00 | 0.00 | 100 | 1017.9 |
| 20260902074838 | 76 | 277 | 0.0 | 0.0 | 0.00 | 0.00 | 0.00 | 100 | 1017.9 |
| 20260902074339 | 76 | 277 | 0.0 | 0.0 | 0.00 | 0.00 | 0.00 | 100 | 1017.9 |
| 20260902073839 | 76 | 277 | 0.0 | 0.0 | 0.00 | 0.00 | 0.00 | 100 | 1017.9 |
| 20260902073338 | 76 | 274 | 0.0 | 0.0 | 0.00 | 0.00 | 0.00 | 100 | 1017.9 |
| 20260902072838 | 76 | 271 | 0.0 | 0.0 | 0.00 | 0.00 | 0.00 | 100 | 1017.9 |
| 20260902072338 | 76 | 284 | 0.0 | 0.0 | 0.00 | 0.00 | 0.00 | 100 | 1017.9 |
| 20260902071838 | 76 | 257 | 2.0 | 2.0 | 0.00 | 0.00 | 0.00 | 100 | 1017.9 |
| 20260902071338 | 76 | 276 | 0.0 | 0.0 | 0.00 | 0.00 | 0.00 | 100 | 1017.9 |
| 20260902070838 | 76 | 276 | 0.0 | 0.0 | 0.00 | 0.00 | 0.00 | 100 | 1017.9 |
| 20260902070338 | 76 | 272 | 0.0 | 0.0 | 0.00 | 0.00 | 0.00 | 100 | 1017.9 |
| 20260902065838 | 76 | 276 | 0.0 | 0.0 | 0.00 | 0.00 | 0.00 | 100 | 1017.9 |
| 20260902065339 | 76 | 320 | 0.0 | 0.0 | 0.00 | 0.00 | 0.00 | 100 | 1017.9 |
| 20260902064838 | 76 | 327 | 0.0 | 0.0 | 0.00 | 0.00 | 0.00 | 100 | 1018.3 |
| 20260902064340 | 76 | 329 | 0.0 | 0.0 | 0.00 | 0.00 | 0.00 | 100 | 1018.3 |
| 20260902063838 | 76 | 336 | 0.0 | 0.0 | 0.00 | 0.00 | 0.00 | 100 | 1018.3 |
| 20260902063338 | 76 | 297 | 0.0 | 0.0 | 0.00 | 0.00 | 0.00 | 100 | 1018.3 |
| 20260902062838 | 76 | 303 | 0.0 | 0.0 | 0.00 | 0.00 | 0.00 | 100 | 1018.3 |
| 20260902062338 | 76 | 301 | 0.0 | 0.0 | 0.00 | 0.00 | 0.00 | 100 | 1018.3 |
| 20260902061838 | 76 | 299 | 0.0 | 0.0 | 0.00 | 0.00 | 0.00 | 99 | 1018.3 |
| 20260902061339 | 76 | 340 | 0.0 | 0.0 | 0.00 | 0.00 | 0.00 | 99 | 1018.3 |
| 20260902060841 | 77 | 257 | 0.0 | 2.0 | 0.00 | 0.00 | 0.00 | 99 | 1018.3 |
| 20260902060338 | 77 | 261 | 0.0 | 2.0 | 0.00 | 0.00 | 0.00 | 99 | 1018.6 |
| 20260902055838 | 76 | 234 | 2.0 | 2.0 | 0.00 | 0.00 | 0.00 | 99 | 1018.3 |
| 20260902055339 | 76 | 275 | 0.0 | 0.0 | 0.00 | 0.00 | 0.00 | 99 | 1018.6 |
| 20260902054838 | 76 | 270 | 0.0 | 0.0 | 0.00 | 0.00 | 0.00 | 99 | 1018.3 |
| 20260902054338 | 77 | 305 | 0.0 | 0.0 | 0.00 | 0.00 | 0.00 | 99 | 1018.3 |
| 20260902053838 | 77 | 307 | 0.0 | 0.0 | 0.00 | 0.00 | 0.00 | 99 | 1018.3 |
| 20260902053338 | 77 | 288 | 0.0 | 2.0 | 0.00 | 0.00 | 0.00 | 99 | 1018.3 |
| 20260902052840 | 77 | 14 | 0.0 | 2.0 | 0.00 | 0.00 | 0.00 | 99 | 1018.3 |
| 20260902052339 | 77 | 286 | 2.0 | 2.0 | 0.00 | 0.00 | 0.00 | 99 | 1018.3 |
| 20260902051842 | 77 | 278 | 0.0 | 0.0 | 0.00 | 0.00 | 0.00 | 99 | 1018.3 |
| 20260902051339 | 77 | 285 | 0.0 | 2.0 | 0.00 | 0.00 | 0.00 | 98 | 1018.3 |
| 20260902050840 | 77 | 289 | 0.0 | 0.0 | 0.00 | 0.00 | 0.00 | 98 | 1018.3 |
| 20260902050338 | 77 | 287 | 0.0 | 0.0 | 0.00 | 0.00 | 0.00 | 98 | 1018.3 |
| 20260902045839 | 77 | 287 | 0.0 | 0.0 | 0.00 | 0.00 | 0.00 | 98 | 1018.3 |
| 20260902045338 | 77 | 287 | 0.0 | 0.0 | 0.00 | 0.00 | 0.00 | 98 | 1017.9 |
| 20260902044839 | 77 | 280 | 0.0 | 0.0 | 0.00 | 0.00 | 0.00 | 98 | 1017.9 |
| 20260902044338 | 77 | 298 | 0.0 | 0.0 | 0.00 | 0.00 | 0.00 | 98 | 1017.9 |
| 20260902043839 | 77 | 222 | 2.0 | 2.0 | 0.00 | 0.00 | 0.00 | 98 | 1017.9 |
| 20260902043339 | 77 | 278 | 0.0 | 0.0 | 0.00 | 0.00 | 0.00 | 97 | 1017.9 |
| 20260902042839 | 77 | 345 | 0.0 | 0.0 | 0.00 | 0.00 | 0.00 | 97 | 1017.9 |
| 20260902042338 | 77 | 346 | 0.0 | 0.0 | 0.00 | 0.00 | 0.00 | 97 | 1017.9 |
| 20260902041843 | 77 | 341 | 0.0 | 2.0 | 0.00 | 0.00 | 0.00 | 97 | 1017.6 |
| 20260902041338 | 77 | 10 | 0.0 | 2.0 | 0.00 | 0.00 | 0.00 | 97 | 1017.6 |
| 20260902040838 | 78 | 232 | 3.0 | 3.0 | 0.00 | 0.00 | 0.00 | 97 | 1017.6 |
| 20260902040338 | 78 | 299 | 0.0 | 2.0 | 0.00 | 0.00 | 0.00 | 97 | 1017.6 |
| 20260902035838 | 78 | 251 | 2.0 | 2.0 | 0.00 | 0.00 | 0.00 | 97 | 1017.6 |
| 20260902035338 | 78 | 233 | 0.0 | 2.0 | 0.00 | 0.00 | 0.00 | 97 | 1017.6 |
| 20260902034838 | 78 | 239 | 2.0 | 3.0 | 0.00 | 0.00 | 0.00 | 97 | 1017.6 |
| 20260902034338 | 78 | 288 | 0.0 | 0.0 | 0.00 | 0.00 | 0.00 | 96 | 1017.6 |
| 20260902033838 | 78 | 231 | 2.0 | 2.0 | 0.00 | 0.00 | 0.00 | 96 | 1017.6 |
| 20260902033338 | 78 | 267 | 0.0 | 2.0 | 0.00 | 0.00 | 0.00 | 96 | 1017.6 |
| 20260902032839 | 78 | 279 | 0.0 | 2.0 | 0.00 | 0.00 | 0.00 | 96 | 1017.6 |
| 20260902032338 | 78 | 297 | 0.0 | 0.0 | 0.00 | 0.00 | 0.00 | 95 | 1017.6 |
| 20260902031839 | 78 | 306 | 0.0 | 0.0 | 0.00 | 0.00 | 0.00 | 95 | 1017.6 |
| 20260902031338 | 78 | 286 | 0.0 | 0.0 | 0.00 | 0.00 | 0.00 | 95 | 1017.6 |
| 20260902030839 | 78 | 280 | 2.0 | 2.0 | 0.00 | 0.00 | 0.00 | 95 | 1017.6 |
| 20260902030339 | 78 | 276 | 0.0 | 0.0 | 0.00 | 0.00 | 0.00 | 95 | 1017.6 |
| 20260902025838 | 79 | 276 | 0.0 | 2.0 | 0.00 | 0.00 | 0.00 | 95 | 1017.6 |
| 20260902025338 | 79 | 295 | 2.0 | 2.0 | 0.00 | 0.00 | 0.00 | 94 | 1017.6 |
| 20260902024838 | 79 | 254 | 3.0 | 3.0 | 0.00 | 0.00 | 0.00 | 94 | 1017.3 |
| 20260902024338 | 79 | 272 | 3.0 | 3.0 | 0.00 | 0.00 | 0.00 | 94 | 1017.3 |
| 20260902023838 | 79 | 249 | 2.0 | 3.0 | 0.00 | 0.00 | 0.00 | 94 | 1017.3 |
| 20260902023338 | 79 | 217 | 3.0 | 3.0 | 0.00 | 0.00 | 0.00 | 94 | 1017.3 |
| 20260902022839 | 79 | 264 | 2.0 | 2.0 | 0.00 | 0.00 | 0.00 | 94 | 1017.6 |
| 20260902022338 | 79 | 254 | 0.0 | 2.0 | 0.00 | 0.00 | 0.00 | 93 | 1017.6 |
| 20260902021838 | 79 | 253 | 0.0 | 2.0 | 0.00 | 0.00 | 0.00 | 93 | 1017.6 |
| 20260902021339 | 79 | 259 | 2.0 | 2.0 | 0.00 | 0.00 | 0.00 | 93 | 1017.3 |
| 20260902020839 | 79 | 260 | 0.0 | 2.0 | 0.00 | 0.00 | 0.00 | 93 | 1017.3 |
| 20260902020340 | 80 | 226 | 2.0 | 3.0 | 0.00 | 0.00 | 0.00 | 93 | 1017.3 |
| 20260902015840 | 80 | 238 | 3.0 | 3.0 | 0.00 | 0.00 | 0.00 | 92 | 1017.3 |
| 20260902015340 | 80 | 272 | 3.0 | 5.0 | 0.00 | 0.00 | 0.00 | 92 | 1017.6 |
| 20260902014838 | 80 | 240 | 2.0 | 3.0 | 0.00 | 0.00 | 0.00 | 92 | 1017.6 |
| 20260902014338 | 80 | 251 | 2.0 | 2.0 | 0.00 | 0.00 | 0.00 | 92 | 1017.6 |
| 20260902013838 | 80 | 235 | 2.0 | 3.0 | 0.00 | 0.00 | 0.00 | 91 | 1017.6 |
| 20260902013339 | 80 | 221 | 3.0 | 3.0 | 0.00 | 0.00 | 0.00 | 91 | 1017.3 |
| 20260902012839 | 80 | 238 | 2.0 | 2.0 | 0.00 | 0.00 | 0.00 | 91 | 1017.3 |
| 20260902012340 | 80 | 214 | 3.0 | 3.0 | 0.00 | 0.00 | 0.00 | 91 | 1017.3 |
| 20260902011838 | 80 | 212 | 3.0 | 3.0 | 0.00 | 0.00 | 0.00 | 90 | 1017.3 |
| 20260902011338 | 81 | 225 | 2.0 | 3.0 | 0.00 | 0.00 | 0.00 | 90 | 1017.3 |
| 20260902010839 | 81 | 257 | 2.0 | 3.0 | 0.00 | 0.00 | 0.00 | 90 | 1017.3 |
| 20260902010339 | 81 | 250 | 3.0 | 5.0 | 0.00 | 0.00 | 0.00 | 90 | 1017.3 |
| 20260902005838 | 81 | 276 | 2.0 | 3.0 | 0.00 | 0.00 | 0.00 | 90 | 1017.3 |
| 20260902005339 | 81 | 259 | 0.0 | 2.0 | 0.00 | 0.00 | 0.00 | 90 | 1017.3 |
| 20260902004838 | 81 | 284 | 3.0 | 3.0 | 0.00 | 0.00 | 0.00 | 90 | 1017.3 |
| 20260902004339 | 81 | 201 | 2.0 | 2.0 | 0.00 | 0.00 | 0.00 | 89 | 1017.3 |
| 20260902003839 | 81 | 215 | 0.0 | 2.0 | 0.00 | 0.00 | 0.00 | 89 | 1017.3 |